createdAt,value
2022-11-03T00:01:01.001Z,80.00
2022-11-03T00:03:29.047Z,80.56
2022-11-03T00:06:07.579Z,81.85
2022-11-03T00:08:38.011Z,83.04
2022-11-03T00:24:37.656Z,92.05
2022-11-03T00:27:05.558Z,93.83
2022-11-03T00:29:33.416Z,94.93
2022-11-03T00:32:01.333Z,96.27
2022-11-03T00:34:29.207Z,97.08
2022-11-03T00:36:57.054Z,97.58
2022-11-03T00:39:24.983Z,98.34
2022-11-03T00:41:54.251Z,99.02
2022-11-03T00:44:22.101Z,99.50
2022-11-03T00:46:50.015Z,100.00
2022-11-03T00:49:18.146Z,100.00
2022-11-03T00:51:46.035Z,99.78
2022-11-03T00:54:13.854Z,100.00
2022-11-03T00:56:44.303Z,100.00
2022-11-03T00:59:13.549Z,100.00
2022-11-03T01:01:47.158Z,100.00
2022-11-03T01:04:34.746Z,100.00
2022-11-03T01:07:03.703Z,100.00
2022-11-03T01:09:35.242Z,100.00
2022-11-03T01:12:05.195Z,100.00
2022-11-03T01:14:36.585Z,100.00
2022-11-03T01:17:06.478Z,100.00
2022-11-03T01:19:34.392Z,100.00
2022-11-03T01:22:06.455Z,100.00
2022-11-03T01:24:37.601Z,100.00
2022-11-03T01:27:05.545Z,100.00
2022-11-03T01:29:34.787Z,100.00
2022-11-03T01:32:02.655Z,100.00
2022-11-03T01:34:31.166Z,100.00
2022-11-03T01:36:59.731Z,100.00
2022-11-03T01:39:27.793Z,100.00
2022-11-03T01:41:55.803Z,100.00
2022-11-03T01:44:37.102Z,100.00
2022-11-03T01:47:15.752Z,100.00
2022-11-03T01:49:48.125Z,100.00
2022-11-03T01:52:21.294Z,100.00
2022-11-03T01:54:53.092Z,100.00
2022-11-03T01:57:25.623Z,100.00
2022-11-03T01:59:58.086Z,100.00
2022-11-03T02:02:26.835Z,100.00
2022-11-03T02:04:56.130Z,100.00
2022-11-03T02:07:27.993Z,100.00
2022-11-03T02:09:55.862Z,100.00
2022-11-03T02:12:24.345Z,100.00
2022-11-03T02:14:57.640Z,100.00
2022-11-03T02:17:28.984Z,100.00
2022-11-03T02:20:01.204Z,100.00
2022-11-03T02:22:44.892Z,100.00
2022-11-03T02:25:19.275Z,100.00
2022-11-03T02:27:48.675Z,100.00
2022-11-03T02:30:16.653Z,100.00
2022-11-03T02:32:55.882Z,100.00
2022-11-03T02:35:29.624Z,100.00
2022-11-03T02:38:01.084Z,100.00
2022-11-03T02:40:33.618Z,100.00
2022-11-03T02:43:05.381Z,100.00
2022-11-03T02:45:33.575Z,100.00
2022-11-03T02:48:04.159Z,100.00
2022-11-03T02:50:34.905Z,100.00
2022-11-03T02:53:03.204Z,100.00
2022-11-03T02:55:38.299Z,100.00
2022-11-03T02:58:14.826Z,100.00
2022-11-03T03:00:47.818Z,100.00
2022-11-03T03:03:20.827Z,100.00
2022-11-03T03:05:51.533Z,100.00
2022-11-03T03:08:22.251Z,100.00
2022-11-03T03:10:50.479Z,100.00
2022-11-03T03:13:23.718Z,100.00
2022-11-03T03:16:04.850Z,100.00
2022-11-03T03:18:43.283Z,100.00
2022-11-03T03:21:16.356Z,100.00
2022-11-03T03:23:49.849Z,100.00
2022-11-03T03:26:25.115Z,100.00
2022-11-03T03:28:58.551Z,100.00
2022-11-03T03:31:28.994Z,100.00
2022-11-03T03:34:04.635Z,100.00
2022-11-03T03:36:40.849Z,100.00
2022-11-03T03:39:11.360Z,100.00
2022-11-03T03:41:40.498Z,100.00
2022-11-03T03:44:11.587Z,100.00
2022-11-03T03:46:44.504Z,100.00
2022-11-03T03:49:12.493Z,100.00
2022-11-03T03:51:40.578Z,100.00
2022-11-03T03:54:08.533Z,100.00
2022-11-03T03:56:45.005Z,100.00
2022-11-03T03:59:14.343Z,100.00
2022-11-03T04:01:42.295Z,100.00
2022-11-03T04:04:10.348Z,100.00
2022-11-03T04:06:38.206Z,100.00
2022-11-03T04:09:06.079Z,100.00
2022-11-03T04:11:51.546Z,100.00
2022-11-03T04:14:38.138Z,100.00
2022-11-03T04:17:23.414Z,100.00
2022-11-03T04:20:08.716Z,100.00
2022-11-03T04:22:36.686Z,100.00
2022-11-03T04:25:04.875Z,100.00
2022-11-03T04:27:34.720Z,100.00
2022-11-03T04:30:15.324Z,100.00
2022-11-03T04:32:43.883Z,100.00
2022-11-03T04:35:17.426Z,100.00
2022-11-03T04:37:47.774Z,100.00
2022-11-03T04:40:17.716Z,100.00
2022-11-03T04:42:46.517Z,100.00
2022-11-03T04:45:25.409Z,100.00
2022-11-03T04:47:54.222Z,100.00
2022-11-03T04:50:23.850Z,100.00
2022-11-03T04:52:56.571Z,100.00
2022-11-03T04:55:25.286Z,100.00
2022-11-03T04:57:58.425Z,100.00
2022-11-03T05:00:27.804Z,100.00
2022-11-03T05:02:56.555Z,100.00
2022-11-03T05:05:26.593Z,100.00
2022-11-03T05:07:57.713Z,100.00
2022-11-03T05:10:28.828Z,100.00
2022-11-03T05:12:57.588Z,100.00
2022-11-03T05:15:36.646Z,100.00
2022-11-03T05:18:15.311Z,100.00
2022-11-03T05:20:49.111Z,100.00
2022-11-03T05:23:18.255Z,100.00
2022-11-03T05:25:49.855Z,100.00
2022-11-03T05:28:27.508Z,100.00
2022-11-03T05:30:57.197Z,100.00
2022-11-03T05:33:30.436Z,100.00
2022-11-03T05:36:01.888Z,100.00
2022-11-03T05:38:32.923Z,100.00
2022-11-03T05:41:02.558Z,100.00
2022-11-03T05:43:30.911Z,100.00
2022-11-03T05:46:04.370Z,100.00
2022-11-03T05:48:36.538Z,100.00
2022-11-03T05:51:15.430Z,100.00
2022-11-03T05:53:44.327Z,100.00
2022-11-03T05:56:19.447Z,100.00
2022-11-03T05:58:49.911Z,100.00
2022-11-03T06:01:24.784Z,100.00
2022-11-03T06:03:52.742Z,100.00
2022-11-03T06:06:28.007Z,100.00
2022-11-03T06:09:01.137Z,100.00
2022-11-03T06:11:34.640Z,100.00
2022-11-03T06:14:12.353Z,100.00
2022-11-03T06:16:45.418Z,100.00
2022-11-03T06:19:23.229Z,100.00
2022-11-03T06:21:52.982Z,100.00
2022-11-03T06:24:23.097Z,100.00
2022-11-03T06:26:52.816Z,100.00
2022-11-03T06:29:22.236Z,100.00
2022-11-03T06:31:55.258Z,100.00
2022-11-03T06:34:37.978Z,100.00
2022-11-03T06:37:21.358Z,100.00
2022-11-03T06:39:50.609Z,100.00
2022-11-03T06:42:22.706Z,100.00
2022-11-03T06:44:52.875Z,100.00
2022-11-03T06:47:26.648Z,100.00
2022-11-03T06:49:57.958Z,100.00
2022-11-03T06:52:30.146Z,100.00
2022-11-03T06:55:13.683Z,100.00
2022-11-03T06:57:47.378Z,100.00
2022-11-03T07:00:39.895Z,100.00
2022-11-03T07:03:15.386Z,100.00
2022-11-03T07:05:45.267Z,100.00
2022-11-03T07:08:22.592Z,100.00
2022-11-03T07:10:53.227Z,100.00
2022-11-03T07:13:24.842Z,100.00
2022-11-03T07:15:53.380Z,100.00
2022-11-03T07:18:28.622Z,100.00
2022-11-03T07:20:58.756Z,100.00
2022-11-03T07:23:30.342Z,100.00
2022-11-03T07:26:00.586Z,100.00
2022-11-03T07:28:34.750Z,100.00
2022-11-03T07:31:16.296Z,100.00
2022-11-03T07:33:47.896Z,100.00
2022-11-03T07:36:22.281Z,100.00
2022-11-03T07:38:53.054Z,100.00
2022-11-03T07:41:22.322Z,100.00
2022-11-03T07:44:00.406Z,100.00
2022-11-03T07:46:34.971Z,100.00
2022-11-03T07:49:09.443Z,100.00
2022-11-03T07:51:40.793Z,100.00
2022-11-03T07:54:21.497Z,100.00
2022-11-03T07:56:55.365Z,100.00
2022-11-03T07:59:28.481Z,100.00
2022-11-03T08:01:58.592Z,100.00
2022-11-03T08:04:31.035Z,100.00
2022-11-03T08:06:59.118Z,100.00
2022-11-03T08:09:27.465Z,100.00
2022-11-03T08:11:55.632Z,100.00
2022-11-03T08:14:23.648Z,100.00
2022-11-03T08:16:51.624Z,100.00
2022-11-03T08:19:31.143Z,100.00
2022-11-03T08:22:00.888Z,100.00
2022-11-03T08:24:28.835Z,100.00
2022-11-03T08:26:57.023Z,100.00
2022-11-03T08:29:27.316Z,100.00
2022-11-03T08:31:56.448Z,100.00
2022-11-03T08:34:24.594Z,100.00
2022-11-03T08:36:52.472Z,100.00
2022-11-03T08:39:22.052Z,100.00
2022-11-03T08:41:50.050Z,100.00
2022-11-03T08:44:18.144Z,100.00
2022-11-03T08:46:46.078Z,100.00
2022-11-03T08:49:13.969Z,100.00
2022-11-03T08:51:44.635Z,100.00
2022-11-03T08:54:14.388Z,100.00
2022-11-03T08:56:44.614Z,100.00
2022-11-03T08:59:12.519Z,100.00
2022-11-03T09:01:40.538Z,100.00
2022-11-03T09:04:08.700Z,100.00
2022-11-03T09:06:36.758Z,100.00
2022-11-03T09:11:54.050Z,100.00
2022-11-03T09:14:22.094Z,100.00
2022-11-03T09:16:50.064Z,100.00
2022-11-03T09:19:18.100Z,98.57
2022-11-03T09:21:46.031Z,94.13
2022-11-03T09:24:13.964Z,90.31
2022-11-03T09:26:42.004Z,86.96
2022-11-03T09:29:11.329Z,83.94
2022-11-03T09:31:39.416Z,83.32
2022-11-03T09:34:07.389Z,80.12
2022-11-03T09:36:35.279Z,79.10
2022-11-03T09:39:03.185Z,78.49
2022-11-03T09:41:56.078Z,76.58
2022-11-03T09:44:33.415Z,73.62
2022-11-03T09:47:02.161Z,73.87
2022-11-03T09:49:32.956Z,72.73
2022-11-03T09:52:01.572Z,70.90
2022-11-03T09:54:29.927Z,69.80
2022-11-03T09:56:59.476Z,69.57
2022-11-03T09:59:29.049Z,68.43
2022-11-03T10:01:57.507Z,68.34
2022-11-03T10:04:28.756Z,69.41
2022-11-03T10:06:57.890Z,69.41
2022-11-03T10:09:27.132Z,67.19
2022-11-03T10:11:56.072Z,66.49
2022-11-03T10:14:24.711Z,66.27
2022-11-03T10:17:00.261Z,66.41
2022-11-03T10:19:28.193Z,66.20
2022-11-03T10:21:56.088Z,63.61
2022-11-03T10:24:24.016Z,65.09
2022-11-03T10:26:55.173Z,64.26
2022-11-03T10:29:24.600Z,63.91
2022-11-03T10:31:55.344Z,62.88
2022-11-03T10:34:29.185Z,62.36
2022-11-03T10:37:20.991Z,60.67
2022-11-03T10:39:49.821Z,59.58
2022-11-03T10:42:20.865Z,58.69
2022-11-03T10:44:49.657Z,60.09
2022-11-03T10:47:28.363Z,56.42
2022-11-03T10:49:56.629Z,53.66
2022-11-03T10:52:26.690Z,53.02
2022-11-03T10:54:57.610Z,52.43
2022-11-03T10:57:26.506Z,50.36
2022-11-03T10:59:55.602Z,49.53
2022-11-03T11:02:26.720Z,50.10
2022-11-03T11:05:00.870Z,49.35
2022-11-03T11:07:35.655Z,49.48
2022-11-03T11:10:08.999Z,46.97
2022-11-03T11:12:37.836Z,46.44
2022-11-03T11:15:42.407Z,45.73
2022-11-03T11:18:13.182Z,46.32
2022-11-03T11:20:42.547Z,46.29
2022-11-03T11:23:50.190Z,46.03
2022-11-03T11:26:43.956Z,45.90
2022-11-03T11:29:42.821Z,45.62
2022-11-03T11:32:50.373Z,45.54
2022-11-03T11:35:35.477Z,44.42
2022-11-03T11:38:36.650Z,44.38
2022-11-03T11:41:04.747Z,45.67
2022-11-03T11:43:32.759Z,45.78
2022-11-03T11:46:39.984Z,45.84
2022-11-03T11:49:18.791Z,45.74
2022-11-03T11:51:48.378Z,45.17
2022-11-03T11:54:20.918Z,44.78
2022-11-03T11:56:50.233Z,45.10
2022-11-03T11:59:24.817Z,44.26
2022-11-03T12:01:56.416Z,44.36
2022-11-03T12:04:27.818Z,45.16
2022-11-03T12:06:57.696Z,45.30
2022-11-03T12:09:28.195Z,45.05
2022-11-03T12:11:59.393Z,45.13
2022-11-03T12:14:35.370Z,44.98
2022-11-03T12:17:33.977Z,44.39
2022-11-03T12:20:01.861Z,44.72
2022-11-03T12:22:44.010Z,45.32
2022-11-03T12:25:34.527Z,44.01
2022-11-03T12:28:02.450Z,44.20
2022-11-03T12:30:31.653Z,44.24
2022-11-03T12:33:01.194Z,43.47
2022-11-03T12:35:29.092Z,44.05
2022-11-03T12:37:58.791Z,43.60
2022-11-03T12:40:27.283Z,43.13
2022-11-03T12:42:55.261Z,43.46
2022-11-03T12:45:23.173Z,42.85
2022-11-03T12:47:51.046Z,42.35
2022-11-03T12:50:18.946Z,42.44
2022-11-03T12:52:46.840Z,41.92
2022-11-03T12:55:16.642Z,41.91
2022-11-03T12:57:45.883Z,41.75
2022-11-03T13:00:15.103Z,42.34
2022-11-03T13:02:43.219Z,43.05
2022-11-03T13:05:15.292Z,42.93
2022-11-03T13:07:43.487Z,42.29
2022-11-03T13:10:11.596Z,42.54
2022-11-03T13:12:41.687Z,43.12
2022-11-03T13:15:13.503Z,43.77
2022-11-03T13:17:59.691Z,43.16
2022-11-03T13:20:29.484Z,43.03
2022-11-03T13:22:57.391Z,42.99
2022-11-03T13:25:25.382Z,43.93
2022-11-03T13:27:54.944Z,43.61
2022-11-03T13:30:23.602Z,43.28
2022-11-03T13:32:51.738Z,44.14
2022-11-03T13:35:20.421Z,43.52
2022-11-03T13:37:48.524Z,43.43
2022-11-03T13:43:07.199Z,42.76
2022-11-03T13:45:35.567Z,43.64
2022-11-03T13:49:04.065Z,43.83
2022-11-03T13:50:53.633Z,44.10
2022-11-03T13:56:13.154Z,43.96
2022-11-03T14:01:34.935Z,45.49
2022-11-03T14:06:50.963Z,45.79
2022-11-03T14:09:19.037Z,46.55
2022-11-03T14:12:04.713Z,46.50
2022-11-03T14:14:34.120Z,46.29
2022-11-03T14:17:03.734Z,46.74
2022-11-03T14:19:39.469Z,46.52
2022-11-03T14:22:09.696Z,46.98
2022-11-03T14:24:37.662Z,46.37
2022-11-03T14:27:08.799Z,46.90
2022-11-03T14:29:38.213Z,46.96
2022-11-03T14:32:06.761Z,47.17
2022-11-03T14:34:34.787Z,47.20
2022-11-03T14:37:03.500Z,47.24
2022-11-03T14:39:31.677Z,47.80
2022-11-03T14:42:04.826Z,48.93
2022-11-03T14:44:33.703Z,50.09
2022-11-03T14:47:04.088Z,51.68
2022-11-03T14:49:33.388Z,52.88
2022-11-03T14:52:02.743Z,53.92
2022-11-03T14:54:32.328Z,54.62
2022-11-03T14:57:00.529Z,55.14
2022-11-03T14:59:29.073Z,56.55
2022-11-03T15:01:57.886Z,56.88
2022-11-03T15:04:27.517Z,59.28
2022-11-03T15:06:55.704Z,58.83
2022-11-03T15:09:23.705Z,60.11
2022-11-03T15:11:51.642Z,60.88
2022-11-03T15:14:19.577Z,62.13
2022-11-03T15:16:48.170Z,64.09
2022-11-03T15:19:16.192Z,65.40
2022-11-03T15:21:45.476Z,66.50
2022-11-03T15:27:01.340Z,70.48
2022-11-03T15:29:29.347Z,71.56
2022-11-03T15:31:57.244Z,73.01
2022-11-03T15:34:25.140Z,73.74
2022-11-03T15:36:54.753Z,75.11
2022-11-03T15:39:22.669Z,76.53
2022-11-03T15:41:50.583Z,76.93
2022-11-03T15:44:18.562Z,77.71
2022-11-03T15:46:46.501Z,77.91
2022-11-03T15:49:14.416Z,78.36
2022-11-03T15:51:42.332Z,79.80
2022-11-03T15:54:11.668Z,78.94
2022-11-03T15:56:39.641Z,77.17
2022-11-03T15:59:07.582Z,78.17
2022-11-03T16:01:36.066Z,78.20
2022-11-03T16:04:04.141Z,76.71
2022-11-03T16:07:01.582Z,79.35
2022-11-03T16:09:21.477Z,81.00
2022-11-03T16:11:49.452Z,80.72
2022-11-03T16:14:18.404Z,78.74
2022-11-03T16:16:46.429Z,78.69
2022-11-03T16:19:14.330Z,77.16
2022-11-03T16:21:42.233Z,77.55
2022-11-03T16:24:11.362Z,78.69
2022-11-03T16:26:40.736Z,78.97
2022-11-03T16:29:08.646Z,79.88
2022-11-03T16:31:36.773Z,79.91
2022-11-03T16:34:04.829Z,79.47
2022-11-03T16:36:32.730Z,79.51
2022-11-03T16:39:00.781Z,80.14
2022-11-03T16:41:28.662Z,81.03
2022-11-03T16:43:57.947Z,81.33
2022-11-03T16:46:25.889Z,82.36
2022-11-03T16:48:53.852Z,83.03
2022-11-03T16:51:21.791Z,83.86
2022-11-03T16:53:49.795Z,84.01
2022-11-03T16:56:20.701Z,84.49
2022-11-03T16:58:49.401Z,84.85
2022-11-03T17:01:19.664Z,85.77
2022-11-03T17:03:49.864Z,85.89
2022-11-03T17:06:18.536Z,86.79
2022-11-03T17:08:57.221Z,87.19
2022-11-03T17:11:38.172Z,86.91
2022-11-03T17:14:09.077Z,87.33
2022-11-03T17:16:39.111Z,88.48
2022-11-03T17:19:07.809Z,89.16
2022-11-03T17:21:36.508Z,90.38
2022-11-03T17:24:06.734Z,90.63
2022-11-03T17:26:54.097Z,91.68
2022-11-03T17:29:24.341Z,93.08
2022-11-03T17:31:53.793Z,93.49
2022-11-03T17:34:25.123Z,94.46
2022-11-03T17:36:54.701Z,97.22
2022-11-03T17:39:29.305Z,96.80
2022-11-03T17:42:15.952Z,96.99
2022-11-03T17:44:44.534Z,98.35
2022-11-03T17:47:13.830Z,100.00
2022-11-03T17:49:41.952Z,100.00
2022-11-03T17:52:15.551Z,100.00
2022-11-03T17:54:43.583Z,100.00
2022-11-03T17:57:16.880Z,100.00
2022-11-03T17:59:46.222Z,100.00
2022-11-03T18:02:17.639Z,100.00
2022-11-03T18:04:46.035Z,100.00
2022-11-03T18:07:20.943Z,100.00
2022-11-03T18:09:48.924Z,100.00
2022-11-03T18:12:36.433Z,100.00
2022-11-03T18:15:05.240Z,100.00
2022-11-03T18:17:35.139Z,100.00
2022-11-03T18:20:04.260Z,100.00
2022-11-03T18:22:32.219Z,100.00
2022-11-03T18:25:00.227Z,100.00
2022-11-03T18:27:28.244Z,100.00
2022-11-03T18:29:56.244Z,100.00
2022-11-03T18:32:24.248Z,100.00
2022-11-03T18:34:53.994Z,100.00
2022-11-03T18:37:22.173Z,100.00
2022-11-03T18:39:50.154Z,100.00
2022-11-03T18:42:18.106Z,100.00
2022-11-03T18:44:46.619Z,100.00
2022-11-03T18:47:14.731Z,100.00
2022-11-03T18:49:43.442Z,100.00
2022-11-03T18:52:15.959Z,100.00
2022-11-03T18:54:50.231Z,100.00
2022-11-03T18:57:22.468Z,100.00
2022-11-03T18:59:50.917Z,100.00
2022-11-03T19:02:20.651Z,100.00
2022-11-03T19:04:48.986Z,100.00
2022-11-03T19:07:25.661Z,100.00
2022-11-03T19:09:53.581Z,100.00
2022-11-03T19:12:21.883Z,100.00
2022-11-03T19:14:50.882Z,100.00
2022-11-03T19:17:23.364Z,100.00
2022-11-03T19:19:52.537Z,100.00
2022-11-03T19:22:23.074Z,100.00
2022-11-03T19:24:51.024Z,100.00
2022-11-03T19:27:23.704Z,100.00
2022-11-03T19:29:53.626Z,100.00
2022-11-03T19:32:29.458Z,100.00
2022-11-03T19:35:06.219Z,100.00
2022-11-03T19:37:37.828Z,100.00
2022-11-03T19:40:09.040Z,100.00
2022-11-03T19:42:43.907Z,100.00
2022-11-03T19:45:16.019Z,100.00
2022-11-03T19:48:10.688Z,100.00
2022-11-03T19:50:38.380Z,100.00
2022-11-03T19:53:08.825Z,100.00
2022-11-03T19:55:41.657Z,100.00
2022-11-03T19:58:15.408Z,100.00
2022-11-03T20:00:43.900Z,100.00
2022-11-03T20:03:12.432Z,100.00
2022-11-03T20:05:43.893Z,100.00
2022-11-03T20:08:21.582Z,100.00
2022-11-03T20:10:50.213Z,100.00
2022-11-03T20:13:21.725Z,100.00
2022-11-03T20:15:49.860Z,100.00
2022-11-03T20:18:18.155Z,100.00
2022-11-03T20:20:49.251Z,100.00
2022-11-03T20:23:21.477Z,100.00
2022-11-03T20:25:50.044Z,100.00
2022-11-03T20:28:20.750Z,100.00
2022-11-03T20:30:48.962Z,100.00
2022-11-03T20:33:19.276Z,100.00
2022-11-03T20:35:48.686Z,100.00
2022-11-03T20:38:20.588Z,100.00
2022-11-03T20:40:49.404Z,100.00
2022-11-03T20:43:26.733Z,100.00
2022-11-03T20:45:55.167Z,100.00
2022-11-03T20:48:23.525Z,100.00
2022-11-03T20:50:51.773Z,100.00
2022-11-03T20:53:23.352Z,100.00
2022-11-03T20:55:51.985Z,100.00
2022-11-03T20:58:20.577Z,100.00
2022-11-03T21:00:49.939Z,100.00
2022-11-03T21:03:38.088Z,100.00
2022-11-03T21:06:10.022Z,100.00
2022-11-03T21:08:39.700Z,100.00
2022-11-03T21:11:27.661Z,100.00
2022-11-03T21:13:57.546Z,100.00
2022-11-03T21:16:45.460Z,100.00
2022-11-03T21:19:34.064Z,100.00
2022-11-03T21:22:02.231Z,100.00
2022-11-03T21:24:31.476Z,100.00
2022-11-03T21:26:59.393Z,100.00
2022-11-03T21:29:53.335Z,100.00
2022-11-03T21:32:18.495Z,100.00
2022-11-03T21:34:46.590Z,100.00
2022-11-03T21:37:15.845Z,100.00
2022-11-03T21:39:45.717Z,100.00
2022-11-03T21:42:33.346Z,100.00
2022-11-03T21:45:01.836Z,100.00
2022-11-03T21:47:29.756Z,100.00
2022-11-03T21:49:56.648Z,100.00
2022-11-03T21:52:31.997Z,100.00
2022-11-03T21:55:02.043Z,100.00
2022-11-03T21:57:30.289Z,100.00
2022-11-03T21:59:59.284Z,100.00
2022-11-03T22:02:30.084Z,100.00
2022-11-03T22:04:58.711Z,100.00
2022-11-03T22:07:26.700Z,100.00
2022-11-03T22:09:54.634Z,100.00
2022-11-03T22:12:24.209Z,100.00
2022-11-03T22:15:09.394Z,100.00
2022-11-03T22:17:37.372Z,100.00
2022-11-03T22:20:23.614Z,100.00
2022-11-03T22:23:09.016Z,100.00
2022-11-03T22:25:54.404Z,100.00
2022-11-03T22:28:23.731Z,100.00
2022-11-03T22:31:08.740Z,100.00
2022-11-03T22:33:56.929Z,100.00
2022-11-03T22:36:23.851Z,100.00
2022-11-03T22:39:20.509Z,100.00
2022-11-03T22:42:06.788Z,100.00
2022-11-03T22:44:53.951Z,100.00
2022-11-03T22:47:21.892Z,100.00
2022-11-03T22:49:49.798Z,100.00
2022-11-03T22:52:17.709Z,100.00
2022-11-03T22:54:44.560Z,100.00
2022-11-03T22:57:13.225Z,100.00
2022-11-03T22:59:42.619Z,100.00
2022-11-03T23:02:10.649Z,100.00
2022-11-03T23:04:38.566Z,100.00
2022-11-03T23:07:06.504Z,100.00
2022-11-03T23:09:34.473Z,100.00
2022-11-03T23:12:02.366Z,100.00
2022-11-03T23:14:50.248Z,100.00
2022-11-03T23:17:19.571Z,100.00
2022-11-03T23:20:04.951Z,100.00
2022-11-03T23:22:32.849Z,100.00
2022-11-03T23:25:00.058Z,100.00
2022-11-03T23:27:28.146Z,100.00
2022-11-03T23:29:56.090Z,100.00
2022-11-03T23:32:25.489Z,100.00
2022-11-03T23:34:53.393Z,100.00
2022-11-03T23:37:21.295Z,100.00
2022-11-03T23:39:49.197Z,100.00
2022-11-03T23:42:17.119Z,100.00
2022-11-03T23:45:02.148Z,100.00
2022-11-03T23:47:48.799Z,100.00
2022-11-03T23:50:16.820Z,100.00
2022-11-03T23:52:44.727Z,100.00
2022-11-03T23:55:12.611Z,100.00
2022-11-03T23:57:57.843Z,100.00
